This is the latest recevied weather packets stored in our database for station/object OE-11152. If no packets are shown the sender has not sent any weather packets the latest 10 day(s).
| Time | Temp. | Humidity | Pressure | Rain* | Wind** | Luminosity | Snow |
|---|---|---|---|---|---|---|---|
| 1787839518 | 26.11° C | 63% | 1012.2 hPa | 0 mm | - | 607 W/m² | - |
| 1787838918 | 26.11° C | 62% | 1012.3 hPa | 0 mm | - | 526 W/m² | - |
| 1787838091 | 26.11° C | 62% | 1012.3 hPa | 0 mm | - | 580 W/m² | - |
| 1787837718 | 26.11° C | 62% | 1012.3 hPa | 0 mm | - | 627 W/m² | - |
| 1787837118 | 25.56° C | 67% | 1012.4 hPa | 0 mm | - | 627 W/m² | - |
| 1787836291 | 25.56° C | 63% | 1012.6 hPa | 0 mm | - | 668 W/m² | - |
| 1787835917 | 25.56° C | 65% | 1012.6 hPa | 0 mm | - | 681 W/m² | - |
| 1787835318 | 25° C | 68% | 1012.6 hPa | 0 mm | - | 688 W/m² | - |
| 1787834491 | 25° C | 67% | 1012.8 hPa | 0 mm | - | 715 W/m² | - |
| 1787834117 | 25° C | 69% | 1012.8 hPa | 0 mm | - | 708 W/m² | - |
| 1787833518 | 25° C | 68% | 1012.9 hPa | 0 mm | - | 668 W/m² | - |
| 1787832691 | 25° C | 69% | 1013.1 hPa | 0 mm | - | 674 W/m² | - |
| 1787832318 | 24.44° C | 70% | 1013.2 hPa | 0 mm | - | 553 W/m² | - |
| 1787831717 | 24.44° C | 70% | 1013.3 hPa | 0 mm | - | 695 W/m² | - |
| 1787830891 | 24.44° C | 70% | 1013.4 hPa | 0 mm | - | 735 W/m² | - |
| 1787830517 | 24.44° C | 70% | 1013.5 hPa | 0 mm | - | 728 W/m² | - |
| 1787829917 | 23.89° C | 72% | 1013.4 hPa | 0 mm | - | 728 W/m² | - |
| 1787829091 | 23.33° C | 71% | 1013.8 hPa | 0 mm | - | 688 W/m² | - |
| 1787828718 | 23.33° C | 71% | 1013.9 hPa | 0 mm | - | 735 W/m² | - |
| 1787828118 | 23.33° C | 73% | 1013.7 hPa | 0 mm | - | 634 W/m² | - |
| 1787827290 | 23.33° C | 72% | 1014.1 hPa | 0 mm | - | 647 W/m² | - |
| 1787826917 | 22.78° C | 72% | 1014.2 hPa | 0 mm | - | 539 W/m² | - |
| 1787826318 | 22.78° C | 72% | 1014.2 hPa | 0 mm | - | 668 W/m² | - |
| 1787825491 | 22.78° C | 74% | 1014.2 hPa | 0 mm | - | 438 W/m² | - |
| 1787825118 | 22.78° C | 72% | 1014.3 hPa | 0 mm | - | 472 W/m² | - |
* Rain latest hour (hover to see other rain measurements)
** Current wind speed in m/s (hover to see current wind gust speed)